createdAt,value
2023-02-26T00:01:15.165Z,90.30
2023-02-26T00:03:43.448Z,86.30
2023-02-26T00:06:12.036Z,87.20
2023-02-26T00:08:50.172Z,87.10
2023-02-26T00:11:30.453Z,88.70
2023-02-26T00:14:01.136Z,87.50
2023-02-26T00:16:31.182Z,87.30
2023-02-26T00:19:00.732Z,87.30
2023-02-26T00:21:30.803Z,87.90
2023-02-26T00:24:00.561Z,89.20
2023-02-26T00:26:30.033Z,90.20
2023-02-26T00:28:58.892Z,89.10
2023-02-26T00:31:28.205Z,91.30
2023-02-26T00:33:58.052Z,89.00
2023-02-26T00:36:48.171Z,88.60
2023-02-26T00:39:42.036Z,89.40
2023-02-26T00:42:16.181Z,90.20
2023-02-26T00:44:45.002Z,90.70
2023-02-26T00:47:28.164Z,87.70
2023-02-26T00:50:22.584Z,88.10
2023-02-26T00:53:03.162Z,88.50
2023-02-26T00:55:32.608Z,88.80
2023-02-26T00:58:03.433Z,90.10
2023-02-26T01:00:31.476Z,89.40
2023-02-26T01:03:05.723Z,90.40
2023-02-26T01:05:34.260Z,90.10
2023-02-26T01:08:10.009Z,89.10
2023-02-26T01:10:40.031Z,90.20
2023-02-26T01:13:12.227Z,89.70
2023-02-26T01:15:43.466Z,90.00
2023-02-26T01:18:27.044Z,90.10
2023-02-26T01:20:59.836Z,90.40
2023-02-26T01:23:34.372Z,90.30
2023-02-26T01:26:11.836Z,90.80
2023-02-26T01:28:46.398Z,91.00
2023-02-26T01:31:39.491Z,90.30
2023-02-26T01:34:19.968Z,90.60
2023-02-26T01:36:57.606Z,90.50
2023-02-26T01:39:41.009Z,90.20
2023-02-26T01:42:16.898Z,90.70
2023-02-26T01:44:56.795Z,90.10
2023-02-26T01:47:31.395Z,90.80
2023-02-26T01:50:07.188Z,90.00
2023-02-26T01:53:04.807Z,89.70
2023-02-26T01:55:38.839Z,88.90
2023-02-26T01:58:08.128Z,87.70
2023-02-26T02:00:36.025Z,88.00
2023-02-26T02:03:07.071Z,89.70
2023-02-26T02:05:42.744Z,89.10
2023-02-26T02:08:11.597Z,88.80
2023-02-26T02:10:45.013Z,88.80
2023-02-26T02:13:26.878Z,90.20
2023-02-26T02:16:11.464Z,89.50
2023-02-26T02:18:58.372Z,88.80
2023-02-26T02:22:08.661Z,88.90
2023-02-26T02:24:54.953Z,90.40
2023-02-26T02:27:32.650Z,90.20
2023-02-26T02:30:29.386Z,88.40
2023-02-26T02:33:02.350Z,87.90
2023-02-26T02:35:33.771Z,88.50
2023-02-26T02:38:06.957Z,89.00
2023-02-26T02:40:47.566Z,87.80
2023-02-26T02:43:17.147Z,87.10
2023-02-26T02:45:50.562Z,90.60
2023-02-26T02:48:33.098Z,87.50
2023-02-26T02:51:03.885Z,87.00
2023-02-26T02:53:37.333Z,86.70
2023-02-26T02:56:11.177Z,89.30
2023-02-26T02:58:49.404Z,88.00
2023-02-26T03:01:21.388Z,85.90
2023-02-26T03:03:58.503Z,88.50
2023-02-26T03:06:26.417Z,90.70
2023-02-26T03:08:55.230Z,86.40
2023-02-26T03:11:31.818Z,85.40
2023-02-26T03:14:03.677Z,85.90
2023-02-26T03:17:05.920Z,89.40
2023-02-26T03:19:55.753Z,86.90
2023-02-26T03:22:30.096Z,86.90
2023-02-26T03:25:08.791Z,88.50
2023-02-26T03:27:45.613Z,88.20
2023-02-26T03:30:18.842Z,86.00
2023-02-26T03:32:59.083Z,86.90
2023-02-26T03:35:49.230Z,89.00
2023-02-26T03:38:25.012Z,89.10
2023-02-26T03:40:57.188Z,87.20
2023-02-26T03:43:34.743Z,87.50
2023-02-26T03:46:08.223Z,89.40
2023-02-26T03:48:37.600Z,90.00
2023-02-26T03:51:11.464Z,87.70
2023-02-26T03:53:50.867Z,88.10
2023-02-26T03:56:29.187Z,90.30
2023-02-26T03:58:57.314Z,86.50
2023-02-26T04:01:33.668Z,87.20
2023-02-26T04:04:06.852Z,89.90
2023-02-26T04:06:41.181Z,89.60
2023-02-26T04:09:16.480Z,87.20
2023-02-26T04:11:55.717Z,87.90
2023-02-26T04:14:23.649Z,89.40
2023-02-26T04:16:54.081Z,90.70
2023-02-26T04:19:24.744Z,88.00
2023-02-26T04:21:59.392Z,87.80
2023-02-26T04:24:30.197Z,89.00
2023-02-26T04:26:58.153Z,90.50
2023-02-26T04:29:26.066Z,87.80
2023-02-26T04:31:57.084Z,88.50
2023-02-26T04:34:25.027Z,90.10
2023-02-26T04:36:53.140Z,89.10
2023-02-26T04:39:31.486Z,89.20
2023-02-26T04:41:59.375Z,89.60
2023-02-26T04:44:27.333Z,88.90
2023-02-26T04:46:55.182Z,89.90
2023-02-26T04:49:26.195Z,89.70
2023-02-26T04:51:54.075Z,88.60
2023-02-26T04:54:24.282Z,89.50
2023-02-26T04:56:56.280Z,89.70
2023-02-26T04:59:32.971Z,90.00
2023-02-26T05:02:01.149Z,90.40
2023-02-26T05:04:29.176Z,90.70
2023-02-26T05:06:57.174Z,89.20
2023-02-26T05:09:25.078Z,89.40
2023-02-26T05:11:57.396Z,91.10
2023-02-26T05:14:26.712Z,91.50
2023-02-26T05:17:05.912Z,90.50
2023-02-26T05:19:34.280Z,89.20
2023-02-26T05:22:12.467Z,91.90
2023-02-26T05:24:40.357Z,90.20
2023-02-26T05:27:14.156Z,91.00
2023-02-26T05:29:44.892Z,89.80
2023-02-26T05:32:27.357Z,90.20
2023-02-26T05:34:58.290Z,89.20
2023-02-26T05:37:26.268Z,90.00
2023-02-26T05:39:54.110Z,90.20
2023-02-26T05:42:31.122Z,89.60
2023-02-26T05:45:00.373Z,89.00
2023-02-26T05:47:30.761Z,90.90
2023-02-26T05:50:01.673Z,90.00
2023-02-26T05:52:37.190Z,88.40
2023-02-26T05:55:06.036Z,88.20
2023-02-26T05:57:33.957Z,90.80
2023-02-26T06:00:04.165Z,87.70
2023-02-26T06:02:38.070Z,88.20
2023-02-26T06:05:11.298Z,89.80
2023-02-26T06:07:42.365Z,90.60
2023-02-26T06:10:12.023Z,89.90
2023-02-26T06:12:42.331Z,88.50
2023-02-26T06:15:17.497Z,89.40
2023-02-26T06:17:45.348Z,89.00
2023-02-26T06:20:16.317Z,88.00
2023-02-26T06:22:44.247Z,89.30
2023-02-26T06:25:15.149Z,89.00
2023-02-26T06:28:00.794Z,88.10
2023-02-26T06:30:30.158Z,86.30
2023-02-26T06:33:00.819Z,89.80
2023-02-26T06:35:31.796Z,87.80
2023-02-26T06:37:59.831Z,90.00
2023-02-26T06:40:27.755Z,91.30
2023-02-26T06:42:58.596Z,90.80
2023-02-26T06:45:30.633Z,93.00
2023-02-26T06:47:58.620Z,90.00
2023-02-26T06:50:26.505Z,93.50
2023-02-26T06:52:54.411Z,89.60
2023-02-26T06:55:26.799Z,90.70
2023-02-26T06:58:00.744Z,87.30
2023-02-26T07:00:29.964Z,87.50
2023-02-26T07:02:58.266Z,87.30
2023-02-26T07:05:26.139Z,89.50
2023-02-26T07:07:53.993Z,88.10
2023-02-26T07:10:22.383Z,88.10
2023-02-26T07:12:52.655Z,88.80
2023-02-26T07:15:23.546Z,88.50
2023-02-26T07:17:52.803Z,89.00
2023-02-26T07:20:26.832Z,91.00
2023-02-26T07:22:54.691Z,90.90
2023-02-26T07:25:22.932Z,90.70
2023-02-26T07:27:50.936Z,91.70
2023-02-26T07:30:19.310Z,90.80
2023-02-26T07:32:47.180Z,91.00
2023-02-26T07:35:16.449Z,91.00
2023-02-26T07:37:44.309Z,91.30
2023-02-26T07:40:13.333Z,91.60
2023-02-26T07:42:41.295Z,91.80
2023-02-26T07:45:12.998Z,92.50
2023-02-26T07:47:45.024Z,92.40
2023-02-26T07:50:13.385Z,91.90
2023-02-26T07:52:46.163Z,91.70
2023-02-26T07:55:16.938Z,91.80
2023-02-26T07:57:44.812Z,92.10
2023-02-26T08:00:16.937Z,92.30
2023-02-26T08:02:44.790Z,91.70
2023-02-26T08:05:15.144Z,91.60
2023-02-26T08:07:51.673Z,91.20
2023-02-26T08:10:22.536Z,91.60
2023-02-26T08:12:50.367Z,91.90
2023-02-26T08:15:20.949Z,91.40
2023-02-26T08:17:48.845Z,91.70
2023-02-26T08:20:19.301Z,91.90
2023-02-26T08:22:48.712Z,92.40
2023-02-26T08:25:17.220Z,92.00
2023-02-26T08:27:47.659Z,92.30
2023-02-26T08:30:19.311Z,92.60
2023-02-26T08:32:47.321Z,92.40
2023-02-26T08:35:15.208Z,92.00
2023-02-26T08:37:43.212Z,92.00
2023-02-26T08:40:15.955Z,91.80
2023-02-26T08:42:43.884Z,92.00
2023-02-26T08:45:12.157Z,92.30
2023-02-26T08:47:55.802Z,92.60
2023-02-26T08:50:25.098Z,92.30
2023-02-26T08:52:53.092Z,92.00
2023-02-26T08:55:24.590Z,91.90
2023-02-26T08:57:52.462Z,91.50
2023-02-26T09:00:21.062Z,91.80
2023-02-26T09:02:48.998Z,91.30
2023-02-26T09:05:17.229Z,91.60
2023-02-26T09:07:45.714Z,91.60
2023-02-26T09:10:15.031Z,91.30
2023-02-26T09:12:44.781Z,91.80
2023-02-26T09:15:14.329Z,91.60
2023-02-26T09:17:42.882Z,91.30
2023-02-26T09:20:11.830Z,91.00
2023-02-26T09:22:42.463Z,91.30
2023-02-26T09:25:11.269Z,91.20
2023-02-26T09:27:39.162Z,90.80
2023-02-26T09:30:09.940Z,90.50
2023-02-26T09:32:37.985Z,90.70
2023-02-26T09:35:06.633Z,90.50
2023-02-26T09:37:34.558Z,91.20
2023-02-26T09:40:03.252Z,90.90
2023-02-26T09:42:49.250Z,90.50
2023-02-26T09:45:27.181Z,90.50
2023-02-26T09:47:56.150Z,90.20
2023-02-26T09:50:27.269Z,90.20
2023-02-26T09:53:02.066Z,90.20
2023-02-26T09:55:32.468Z,89.40
2023-02-26T09:58:03.063Z,89.40
2023-02-26T10:00:38.405Z,89.50
2023-02-26T10:03:23.451Z,88.30
2023-02-26T10:06:09.552Z,89.30
2023-02-26T10:08:51.791Z,87.90
2023-02-26T10:11:31.492Z,89.80
2023-02-26T10:14:08.119Z,89.90
2023-02-26T10:16:49.640Z,90.20
2023-02-26T10:19:21.056Z,87.50
2023-02-26T10:21:53.547Z,86.70
2023-02-26T10:24:25.668Z,87.10
2023-02-26T10:27:01.367Z,86.00
2023-02-26T10:29:35.529Z,86.90
2023-02-26T10:32:24.918Z,86.60
2023-02-26T10:34:56.921Z,85.20
2023-02-26T10:37:36.624Z,85.30
2023-02-26T10:40:13.979Z,85.40
2023-02-26T10:42:44.882Z,86.10
2023-02-26T10:45:25.349Z,86.90
2023-02-26T10:48:13.860Z,84.90
2023-02-26T10:50:53.070Z,84.20
2023-02-26T10:53:25.129Z,86.40
2023-02-26T10:55:58.139Z,83.00
2023-02-26T10:58:26.998Z,85.40
2023-02-26T11:00:56.496Z,83.60
2023-02-26T11:03:32.817Z,82.30
2023-02-26T11:06:11.540Z,82.30
2023-02-26T11:08:46.322Z,81.80
2023-02-26T11:11:38.700Z,82.50
2023-02-26T11:14:06.610Z,81.60
2023-02-26T11:16:51.635Z,82.30
2023-02-26T11:19:29.371Z,80.00
2023-02-26T11:21:58.061Z,81.30
2023-02-26T11:24:31.971Z,79.50
2023-02-26T11:27:04.015Z,80.60
2023-02-26T11:29:39.105Z,80.60
2023-02-26T11:32:07.586Z,80.80
2023-02-26T11:34:40.358Z,80.20
2023-02-26T11:37:08.295Z,79.90
2023-02-26T11:39:39.688Z,78.90
2023-02-26T11:42:07.593Z,79.80
2023-02-26T11:44:47.075Z,79.00
2023-02-26T11:47:17.251Z,79.80
2023-02-26T11:49:52.879Z,78.70
2023-02-26T11:52:29.877Z,78.30
2023-02-26T11:55:02.326Z,81.00
2023-02-26T11:57:32.309Z,80.90
2023-02-26T12:00:02.111Z,75.50
2023-02-26T12:02:35.784Z,76.20
2023-02-26T12:05:08.109Z,76.40
2023-02-26T12:07:35.932Z,76.10
2023-02-26T12:10:17.700Z,76.50
2023-02-26T12:13:13.764Z,77.30
2023-02-26T12:15:55.441Z,78.70
2023-02-26T12:18:35.119Z,74.50
2023-02-26T12:21:25.121Z,76.50
2023-02-26T12:24:16.944Z,75.60
2023-02-26T12:26:53.333Z,72.90
2023-02-26T12:29:45.913Z,73.20
2023-02-26T12:32:44.197Z,75.20
2023-02-26T12:35:46.422Z,75.90
2023-02-26T12:38:31.692Z,75.30
2023-02-26T12:41:48.531Z,74.30
2023-02-26T12:44:41.614Z,75.60
2023-02-26T12:47:35.915Z,77.10
2023-02-26T12:50:28.778Z,74.60
2023-02-26T12:53:24.898Z,73.60
2023-02-26T12:56:24.591Z,72.90
2023-02-26T12:59:04.750Z,72.90
2023-02-26T13:02:02.743Z,73.10
2023-02-26T13:05:05.438Z,73.90
2023-02-26T13:07:54.241Z,73.40
2023-02-26T13:10:37.844Z,73.50
2023-02-26T13:13:31.158Z,73.60
2023-02-26T13:16:17.705Z,74.50
2023-02-26T13:19:01.528Z,73.50
2023-02-26T13:21:40.180Z,73.00
2023-02-26T13:24:13.046Z,71.20
2023-02-26T13:26:43.463Z,71.90
2023-02-26T13:29:16.925Z,72.90
2023-02-26T13:31:49.026Z,72.20
2023-02-26T13:34:22.782Z,71.60
2023-02-26T13:37:00.764Z,69.70
2023-02-26T13:39:42.643Z,71.70
2023-02-26T13:42:23.269Z,70.00
2023-02-26T13:45:14.885Z,71.60
2023-02-26T13:48:11.461Z,69.40
2023-02-26T13:50:51.101Z,68.80
2023-02-26T13:53:53.022Z,72.10
2023-02-26T13:56:24.827Z,70.20
2023-02-26T13:59:03.551Z,71.00
2023-02-26T14:01:36.895Z,70.00
2023-02-26T14:04:24.861Z,70.10
2023-02-26T14:07:08.231Z,68.30
2023-02-26T14:09:51.716Z,73.40
2023-02-26T14:12:38.796Z,69.30
2023-02-26T14:15:44.566Z,68.80
2023-02-26T14:18:30.821Z,69.10
2023-02-26T14:21:34.253Z,71.50
2023-02-26T14:24:14.309Z,69.00
2023-02-26T14:26:47.072Z,69.20
2023-02-26T14:29:27.444Z,68.70
2023-02-26T14:32:15.815Z,70.10
2023-02-26T14:34:55.242Z,68.70
2023-02-26T14:37:26.172Z,67.70
2023-02-26T14:39:58.556Z,70.10
2023-02-26T14:42:35.306Z,69.20
2023-02-26T14:45:27.199Z,70.60
2023-02-26T14:48:06.453Z,75.00
2023-02-26T14:50:45.601Z,70.80
2023-02-26T14:53:58.607Z,67.60
2023-02-26T14:56:35.581Z,66.80
2023-02-26T14:59:41.614Z,67.30
2023-02-26T15:02:24.765Z,68.60
2023-02-26T15:05:22.566Z,69.10
2023-02-26T15:08:15.234Z,67.30
2023-02-26T15:11:09.222Z,67.00
2023-02-26T15:13:55.306Z,67.60
2023-02-26T15:16:34.884Z,68.30
2023-02-26T15:19:41.158Z,68.80
2023-02-26T15:22:36.020Z,69.10
2023-02-26T15:25:09.268Z,69.30
2023-02-26T15:27:40.180Z,69.30
2023-02-26T15:30:13.725Z,68.60
2023-02-26T15:32:41.959Z,69.10
2023-02-26T15:35:17.281Z,68.50
2023-02-26T15:37:48.912Z,68.50
2023-02-26T15:40:19.117Z,68.60
2023-02-26T15:42:58.578Z,68.80
2023-02-26T15:45:35.913Z,69.70
2023-02-26T15:48:07.227Z,69.00
2023-02-26T15:50:41.755Z,69.00
2023-02-26T15:53:15.704Z,69.10
2023-02-26T15:55:48.616Z,69.20
2023-02-26T15:58:23.768Z,70.90
2023-02-26T16:00:55.968Z,71.70
2023-02-26T16:03:28.915Z,69.60
2023-02-26T16:05:57.185Z,69.50
2023-02-26T16:08:25.123Z,68.90
2023-02-26T16:10:55.874Z,69.20
2023-02-26T16:13:29.786Z,68.30
2023-02-26T16:16:04.001Z,67.80
2023-02-26T16:18:34.943Z,68.60
2023-02-26T16:21:08.931Z,68.60
2023-02-26T16:23:45.562Z,68.10
2023-02-26T16:26:23.076Z,68.10
2023-02-26T16:28:57.310Z,68.80
2023-02-26T16:31:27.417Z,73.30
2023-02-26T16:33:59.624Z,66.30
2023-02-26T16:36:31.615Z,67.30
2023-02-26T16:39:14.646Z,68.30
2023-02-26T16:41:49.282Z,68.70
2023-02-26T16:44:48.853Z,67.70
2023-02-26T16:47:17.649Z,67.50
2023-02-26T16:49:45.870Z,67.70
2023-02-26T16:52:23.415Z,69.30
2023-02-26T16:55:03.526Z,67.50
2023-02-26T16:57:37.571Z,69.10
2023-02-26T17:00:10.784Z,68.40
2023-02-26T17:02:47.703Z,69.00
2023-02-26T17:05:24.670Z,68.70
2023-02-26T17:07:58.254Z,69.10
2023-02-26T17:10:33.090Z,68.80
2023-02-26T17:13:17.520Z,70.70
2023-02-26T17:15:47.398Z,70.10
2023-02-26T17:18:15.581Z,69.90
2023-02-26T17:20:46.901Z,70.40
2023-02-26T17:23:19.396Z,71.50
2023-02-26T17:25:50.580Z,71.10
2023-02-26T17:28:25.210Z,70.10
2023-02-26T17:30:56.321Z,73.50
2023-02-26T17:33:29.589Z,72.40
2023-02-26T17:36:01.532Z,69.90
2023-02-26T17:38:29.766Z,71.10
2023-02-26T17:40:58.294Z,72.00
2023-02-26T17:43:28.707Z,74.30
2023-02-26T17:45:59.547Z,77.20
2023-02-26T17:48:35.328Z,70.10
2023-02-26T17:51:04.867Z,69.90
2023-02-26T17:53:40.698Z,69.90
2023-02-26T17:56:28.017Z,74.30
2023-02-26T17:58:58.592Z,74.80
2023-02-26T18:01:38.491Z,72.20
2023-02-26T18:04:06.619Z,72.50
2023-02-26T18:06:38.444Z,73.40
2023-02-26T18:09:07.011Z,72.90
2023-02-26T18:11:35.252Z,75.60
2023-02-26T18:14:11.081Z,73.40
2023-02-26T18:16:41.854Z,71.80
2023-02-26T18:19:14.934Z,72.20
2023-02-26T18:21:42.899Z,76.40
2023-02-26T18:24:11.258Z,78.60
2023-02-26T18:26:42.730Z,73.90
2023-02-26T18:29:12.739Z,71.90
2023-02-26T18:31:46.583Z,71.20
2023-02-26T18:34:23.106Z,71.20
2023-02-26T18:36:50.972Z,75.90
2023-02-26T18:39:21.881Z,73.00
2023-02-26T18:41:55.483Z,71.60
2023-02-26T18:44:24.879Z,71.40
2023-02-26T18:46:58.575Z,71.80
2023-02-26T18:49:27.281Z,71.80
2023-02-26T18:51:55.484Z,73.50
2023-02-26T18:54:36.871Z,73.40
2023-02-26T18:57:05.429Z,81.60
2023-02-26T18:59:37.731Z,73.60
2023-02-26T19:02:07.336Z,73.10
2023-02-26T19:04:40.993Z,73.50
2023-02-26T19:07:09.822Z,76.50
2023-02-26T19:09:37.721Z,76.40
2023-02-26T19:12:10.880Z,76.40
2023-02-26T19:14:41.145Z,74.30
2023-02-26T19:17:13.596Z,74.70
2023-02-26T19:19:44.561Z,74.70
2023-02-26T19:22:18.829Z,77.30
2023-02-26T19:24:46.744Z,75.00
2023-02-26T19:27:20.313Z,77.30
2023-02-26T19:29:52.557Z,73.70
2023-02-26T19:32:27.039Z,74.30
2023-02-26T19:34:55.027Z,74.70
2023-02-26T19:37:29.103Z,75.60
2023-02-26T19:39:59.382Z,76.20
2023-02-26T19:42:36.127Z,76.30
2023-02-26T19:45:06.250Z,76.40
2023-02-26T19:47:37.128Z,76.70
2023-02-26T19:50:05.698Z,77.40
2023-02-26T19:52:44.344Z,77.90
2023-02-26T19:55:18.355Z,81.40
2023-02-26T19:57:47.716Z,79.90
2023-02-26T20:00:41.446Z,77.80
2023-02-26T20:03:09.461Z,77.30
2023-02-26T20:05:37.975Z,77.60
2023-02-26T20:08:06.363Z,77.80
2023-02-26T20:10:34.227Z,78.20
2023-02-26T20:13:05.030Z,77.20
2023-02-26T20:15:38.649Z,79.40
2023-02-26T20:18:11.560Z,78.60
2023-02-26T20:20:39.419Z,78.60
2023-02-26T20:23:07.257Z,77.30
2023-02-26T20:25:43.900Z,77.00
2023-02-26T20:28:18.370Z,79.00
2023-02-26T20:30:46.950Z,78.00
2023-02-26T20:33:16.354Z,79.80
2023-02-26T20:36:07.968Z,85.20
2023-02-26T20:38:36.018Z,81.30
2023-02-26T20:41:06.666Z,78.70
2023-02-26T20:43:38.158Z,76.20
2023-02-26T20:46:15.364Z,78.90
2023-02-26T20:48:44.745Z,84.00
2023-02-26T20:51:12.925Z,77.20
2023-02-26T20:53:40.953Z,76.10
2023-02-26T20:56:11.595Z,76.10
2023-02-26T20:58:42.123Z,78.40
2023-02-26T21:01:10.014Z,78.50
2023-02-26T21:03:41.014Z,77.00
2023-02-26T21:06:16.488Z,76.10
2023-02-26T21:08:50.469Z,76.90
2023-02-26T21:11:18.343Z,77.50
2023-02-26T21:13:49.267Z,78.70
2023-02-26T21:16:20.581Z,78.10
2023-02-26T21:18:48.478Z,77.70
2023-02-26T21:21:17.760Z,78.00
2023-02-26T21:23:45.601Z,77.50
2023-02-26T21:26:16.524Z,76.90
2023-02-26T21:28:48.365Z,77.80
2023-02-26T21:31:25.841Z,78.10
2023-02-26T21:34:00.742Z,81.30
2023-02-26T21:36:33.884Z,78.60
2023-02-26T21:39:04.149Z,77.60
2023-02-26T21:41:32.008Z,78.20
2023-02-26T21:43:59.856Z,77.60
2023-02-26T21:46:30.717Z,78.90
2023-02-26T21:49:01.847Z,79.60
2023-02-26T21:51:36.081Z,78.00
2023-02-26T21:54:04.059Z,77.40
2023-02-26T21:56:32.034Z,77.50
2023-02-26T21:59:00.215Z,79.40
2023-02-26T22:01:28.680Z,80.30
2023-02-26T22:04:04.312Z,78.60
2023-02-26T22:06:33.719Z,78.40
2023-02-26T22:09:03.850Z,78.90
2023-02-26T22:11:31.888Z,82.70
2023-02-26T22:13:59.762Z,85.00
2023-02-26T22:16:35.963Z,79.60
2023-02-26T22:19:07.106Z,78.10
2023-02-26T22:21:36.433Z,78.60
2023-02-26T22:24:05.187Z,79.50
2023-02-26T22:26:46.806Z,77.80
2023-02-26T22:29:19.272Z,77.90
2023-02-26T22:31:51.000Z,79.40
2023-02-26T22:34:21.839Z,82.50
2023-02-26T22:36:52.118Z,79.80
2023-02-26T22:39:20.211Z,79.00
2023-02-26T22:41:48.258Z,78.90
2023-02-26T22:44:21.984Z,85.30
2023-02-26T22:46:55.937Z,84.10
2023-02-26T22:49:23.837Z,80.20
2023-02-26T22:51:53.098Z,79.10
2023-02-26T22:54:26.989Z,83.00
2023-02-26T22:56:54.807Z,87.40
2023-02-26T22:59:22.755Z,80.00
2023-02-26T23:01:57.799Z,79.80
2023-02-26T23:04:25.936Z,80.20
2023-02-26T23:06:55.127Z,90.80
2023-02-26T23:09:22.951Z,86.80
2023-02-26T23:11:56.879Z,87.60
2023-02-26T23:14:25.120Z,90.30
2023-02-26T23:16:53.022Z,92.00
2023-02-26T23:19:23.304Z,92.70
2023-02-26T23:21:51.348Z,91.70
2023-02-26T23:24:26.751Z,91.50
2023-02-26T23:26:54.624Z,91.30
2023-02-26T23:29:22.505Z,91.30
2023-02-26T23:31:50.920Z,84.60
2023-02-26T23:34:27.681Z,79.60
2023-02-26T23:36:55.633Z,76.60
2023-02-26T23:39:28.439Z,76.40
2023-02-26T23:42:04.052Z,75.20
2023-02-26T23:44:32.198Z,75.90
2023-02-26T23:47:00.076Z,77.50
2023-02-26T23:49:27.930Z,80.50
2023-02-26T23:51:59.014Z,78.20
2023-02-26T23:54:33.726Z,78.30
2023-02-26T23:57:03.038Z,80.90
2023-02-26T23:59:34.049Z,84.00
